Main page
Satellite images 15-day forecastsClimateMarine weather Cyclones Lightning AirportsFAQ Newsletter About
Weather : Europe Africa North America South America Asia Australia-Oceania Others
Languages Contact

Eleusina, Greece

latitude: 38-04N, longitude: 023-33E, elevation: 44 m


METAR: LGEL 221120Z 20011KT 9999 FEW030 36/13 Q1013 NOSIG
short-TAF: out of date (19752 hours)
long-TAF: LGEL 221100Z 2212/2312 19010KT 9999 FEW030 TEMPO 2218/2220 30010KT

Time: 14:45 (11:45 UTC)

Current weather observation

The report was made 25 minutes ago, at 11:20 UTC  
Wind 11 kt from the South/Southwest
Temperature 36°C
Humidity 25%
Pressure 1013 hPa
Visibility 10 km or more
Few clouds at a height of 3000 ft

Change units

Forecast

The report was made 33 minutes ago, at 11:12 UTC  
Forecast valid from 22 at 12 UTC to 23 at 12 UTC
Wind 10 kt from the South
Visibility 10 km or more
Few clouds at a height of 3000 ft
Temporary
from 22 at 18 UTC to 22 at 20 UTC
Wind 10 kt from the West/Northwest
The information on this site is subject to a disclaimer
Weather : Europe Africa North America South America Asia Australia-Oceania Others
Satellite images 15-day forecastsClimateMarine weather Cyclones Lightning AirportsFAQ Languages Contact Newsletter About